Time;durP1;ratioP1;P1;durP2;ratioP2;P2;SDS_P1;SDS_P2;PMS_P1;PMS_P2;Temp;Humidity;BMP_temperature;BMP_pressure;BME280_temperature;BME280_humidity;BME280_pressure;Samples;Min_cycle;Max_cycle;Signal;HPM_P1;HPM_P2
2021/12/12 00:01:52;;;;;;;3.77;2.63;;;;;;;2.51;100.00;97060.75;5058019;28;20211;-84
2021/12/12 00:04:31;;;;;;;3.33;2.83;;;;;;;2.48;100.00;97056.56;5083695;28;20262;-84
2021/12/12 00:07:01;;;;;;;2.90;2.47;;;;;;;2.53;100.00;97058.75;5058398;28;20229;-83
2021/12/12 00:09:31;;;;;;;3.17;2.50;;;;;;;2.51;100.00;97063.41;5056623;28;20274;-84
2021/12/12 00:12:04;;;;;;;3.70;2.70;;;;;;;2.57;100.00;97065.41;5059866;28;20197;-84
2021/12/12 00:14:35;;;;;;;2.90;2.60;;;;;;;2.57;100.00;97063.59;5056445;28;20292;-84
2021/12/12 00:17:03;;;;;;;3.33;2.43;;;;;;;2.57;100.00;97058.25;5057865;28;20204;-84
2021/12/12 00:19:31;;;;;;;3.23;2.70;;;;;;;2.62;100.00;97057.78;5064493;28;20240;-83
2021/12/12 00:22:04;;;;;;;6.33;2.90;;;;;;;2.61;100.00;97064.09;5054842;28;20201;-83
2021/12/12 00:24:32;;;;;;;3.13;2.83;;;;;;;2.59;100.00;97058.09;5054158;28;20296;-85
2021/12/12 00:27:00;;;;;;;3.73;3.00;;;;;;;2.61;100.00;97056.94;5066177;28;20243;-84
2021/12/12 00:29:28;;;;;;;3.67;2.77;;;;;;;2.64;100.00;97055.75;5056226;28;20213;-84
2021/12/12 00:32:02;;;;;;;3.90;2.90;;;;;;;2.58;100.00;97049.25;5055311;28;20197;-84
2021/12/12 00:34:35;;;;;;;2.97;2.60;;;;;;;2.63;100.00;97059.44;5060224;28;20207;-85
2021/12/12 00:37:03;;;;;;;3.60;2.80;;;;;;;2.56;100.00;97063.75;5061278;28;20209;-84
2021/12/12 00:39:33;;;;;;;2.47;2.27;;;;;;;2.48;100.00;97048.56;5059193;28;20212;-84
2021/12/12 00:42:06;;;;;;;3.87;2.83;;;;;;;2.51;100.00;97066.06;5062946;28;20305;-84
2021/12/12 00:44:33;;;;;;;4.57;3.03;;;;;;;2.51;100.00;97066.06;5057045;28;20232;-84
2021/12/12 00:47:03;;;;;;;3.97;3.30;;;;;;;2.49;100.00;97065.41;5061895;28;20209;-83
2021/12/12 00:49:32;;;;;;;4.30;3.20;;;;;;;2.49;100.00;97062.72;5062630;28;20209;-83
2021/12/12 00:52:00;;;;;;;3.63;3.17;;;;;;;2.43;100.00;97056.22;5053586;28;20210;-83
2021/12/12 00:54:31;;;;;;;3.60;3.20;;;;;;;2.43;100.00;97060.72;5065699;28;20307;-84
2021/12/12 00:56:58;;;;;;;4.40;3.33;;;;;;;2.45;100.00;97066.72;5061768;28;20205;-83
2021/12/12 00:59:27;;;;;;;3.90;3.30;;;;;;;2.36;100.00;97060.53;5061388;28;20207;-83
2021/12/12 01:01:55;;;;;;;5.93;3.43;;;;;;;2.43;100.00;97066.88;5054724;28;20205;-84
2021/12/12 01:04:26;;;;;;;3.63;3.33;;;;;;;2.44;100.00;97067.72;5053570;28;20197;-84
2021/12/12 01:06:56;;;;;;;4.47;2.90;;;;;;;2.42;100.00;97061.72;5049776;28;20237;-83
2021/12/12 01:09:28;;;;;;;4.60;3.63;;;;;;;2.46;100.00;97066.56;5054630;28;20218;-85
2021/12/12 01:12:00;;;;;;;4.90;3.70;;;;;;;2.43;100.00;97066.88;5055123;28;20209;-84
2021/12/12 01:14:32;;;;;;;4.17;3.50;;;;;;;2.45;100.00;97072.91;5057563;28;20224;-83
2021/12/12 01:17:05;;;;;;;4.40;3.60;;;;;;;2.45;100.00;97074.72;5060010;28;20277;-84
2021/12/12 01:19:36;;;;;;;5.57;3.77;;;;;;;2.46;100.00;97077.25;5061719;28;20223;-84
2021/12/12 01:22:08;;;;;;;3.73;3.30;;;;;;;2.41;100.00;97071.53;5057339;28;20243;-85
2021/12/12 01:24:38;;;;;;;3.10;2.43;;;;;;;2.38;100.00;97081.72;5057823;28;20200;-83
2021/12/12 01:27:08;;;;;;;5.67;2.80;;;;;;;2.38;100.00;97090.53;5063372;28;20308;-84
2021/12/12 01:29:37;;;;;;;3.53;3.23;;;;;;;2.36;100.00;97089.03;5058383;28;20209;-83
2021/12/12 01:32:11;;;;;;;2.20;2.00;;;;;;;2.41;100.00;97092.03;5059042;28;20217;-85
2021/12/12 01:34:40;;;;;;;1.80;1.70;;;;;;;2.34;100.00;97099.00;5058771;28;20236;-84
2021/12/12 01:37:23;;;;;;;2.97;2.30;;;;;;;2.35;100.00;97106.00;5074422;28;20208;-83
2021/12/12 01:39:52;;;;;;;3.57;2.40;;;;;;;2.46;100.00;97111.06;5052777;28;20220;-84
2021/12/12 01:42:25;;;;;;;1.70;1.53;;;;;;;2.42;100.00;97117.69;5057027;28;20233;-83
2021/12/12 01:44:58;;;;;;;1.50;1.40;;;;;;;2.42;100.00;97125.69;5058435;28;20324;-83
2021/12/12 01:47:30;;;;;;;1.87;1.60;;;;;;;2.38;100.00;97124.34;5056990;28;20220;-84
2021/12/12 01:50:00;;;;;;;1.40;1.27;;;;;;;2.33;100.00;97129.31;5056747;28;20229;-83
2021/12/12 01:52:29;;;;;;;1.27;1.17;;;;;;;2.35;100.00;97132.66;5054874;28;20208;-83
2021/12/12 01:55:01;;;;;;;2.37;1.80;;;;;;;2.21;100.00;97124.25;5058390;28;20406;-83
2021/12/12 01:57:30;;;;;;;1.40;1.30;;;;;;;2.10;100.00;97137.88;5059405;28;20240;-84
2021/12/12 02:00:01;;;;;;;1.43;1.33;;;;;;;1.99;100.00;97131.97;5064266;28;20213;-83
2021/12/12 02:02:39;;;;;;;1.30;1.20;;;;;;;1.98;100.00;97128.47;5066689;28;20212;-84
2021/12/12 02:05:10;;;;;;;1.30;1.20;;;;;;;1.88;100.00;97125.91;5056770;28;20233;-83
2021/12/12 02:07:41;;;;;;;1.73;1.30;;;;;;;1.93;100.00;97136.09;5056963;28;20312;-84
2021/12/12 02:10:16;;;;;;;1.23;1.13;;;;;;;1.97;100.00;97134.78;5058441;28;20382;-83
2021/12/12 02:12:44;;;;;;;1.67;1.13;;;;;;;1.99;100.00;97143.47;5062660;28;20214;-83
2021/12/12 02:15:14;;;;;;;1.20;1.10;;;;;;;1.98;100.00;97149.78;5081291;28;20213;-84
2021/12/12 02:17:46;;;;;;;1.47;1.20;;;;;;;1.86;100.00;97140.41;5061624;28;20209;-84
2021/12/12 02:20:21;;;;;;;1.30;1.20;;;;;;;1.86;100.00;97145.72;5056137;28;20212;-85
2021/12/12 02:23:02;;;;;;;1.20;1.10;;;;;;;1.92;100.00;97154.91;5064163;28;20200;-83
2021/12/12 02:36:42;;;;;;;1.30;1.20;;;;;;;1.57;100.00;97161.97;5057191;28;20214;-83
2021/12/12 02:39:15;;;;;;;1.73;1.20;;;;;;;1.47;100.00;97167.38;5059764;28;20202;-84
2021/12/12 02:41:45;;;;;;;1.20;1.10;;;;;;;1.46;100.00;97176.34;5056928;28;20215;-84
2021/12/12 02:44:13;;;;;;;1.10;1.00;;;;;;;1.46;100.00;97171.03;5066437;28;20223;-84
2021/12/12 02:46:43;;;;;;;1.20;1.10;;;;;;;1.44;100.00;97167.72;5061979;28;20209;-84
2021/12/12 02:49:25;;;;;;;1.20;1.10;;;;;;;1.48;100.00;97170.88;5053343;28;20215;-83
2021/12/12 02:51:53;;;;;;;1.10;1.00;;;;;;;1.46;100.00;97180.84;5059657;28;20205;-84
2021/12/12 02:54:23;;;;;;;0.90;0.90;;;;;;;1.42;100.00;97175.00;5063060;28;20219;-83
2021/12/12 02:56:50;;;;;;;1.93;1.00;;;;;;;1.37;100.00;97177.28;5061440;28;20219;-84
2021/12/12 02:59:23;;;;;;;1.93;1.20;;;;;;;1.42;100.00;97196.28;5061424;28;20205;-83
2021/12/12 03:01:53;;;;;;;1.10;1.00;;;;;;;1.39;100.00;97190.44;5060749;28;20216;-84
2021/12/12 03:04:21;;;;;;;1.20;1.10;;;;;;;1.42;100.00;97201.63;5057128;28;20221;-83
2021/12/12 03:06:49;;;;;;;1.17;1.07;;;;;;;1.36;100.00;97202.22;5058126;28;20240;-83
2021/12/12 03:09:20;;;;;;;1.30;1.20;;;;;;;1.35;100.00;97205.03;5062860;28;20292;-84
2021/12/12 03:11:53;;;;;;;1.33;1.20;;;;;;;1.29;100.00;97203.81;5057171;28;20209;-84
2021/12/12 03:14:20;;;;;;;1.10;1.00;;;;;;;1.25;100.00;97189.16;5066405;28;20270;-84
2021/12/12 03:16:49;;;;;;;1.13;1.03;;;;;;;1.26;100.00;97195.31;5058619;28;20202;-84
2021/12/12 03:19:20;;;;;;;1.40;1.30;;;;;;;1.22;100.00;97199.25;5059004;28;20214;-84
2021/12/12 03:21:49;;;;;;;1.30;1.10;;;;;;;1.21;100.00;97198.41;5065754;28;20226;-84
2021/12/12 03:24:22;;;;;;;2.60;1.80;;;;;;;1.15;100.00;97193.69;5052794;28;20208;-83
2021/12/12 03:26:53;;;;;;;1.07;1.07;;;;;;;1.18;100.00;97197.88;5062929;28;20310;-83
2021/12/12 03:29:21;;;;;;;1.13;1.03;;;;;;;1.14;100.00;97197.34;5061654;28;20203;-84
2021/12/12 03:31:57;;;;;;;1.20;1.10;;;;;;;1.20;100.00;97196.72;5057760;28;20295;-83
2021/12/12 03:34:29;;;;;;;1.30;1.20;;;;;;;1.19;100.00;97199.56;5057100;28;20255;-83
2021/12/12 03:36:57;;;;;;;1.77;1.37;;;;;;;1.13;100.00;97195.66;5066263;28;20211;-83
2021/12/12 03:39:28;;;;;;;2.03;1.70;;;;;;;1.07;100.00;97193.63;5057285;28;20213;-83
2021/12/12 03:41:59;;;;;;;2.00;1.80;;;;;;;1.10;100.00;97203.97;5055473;28;20201;-84
2021/12/12 03:44:31;;;;;;;1.70;1.60;;;;;;;1.07;100.00;97213.06;5059504;28;20305;-83
2021/12/12 03:47:05;;;;;;;1.70;1.60;;;;;;;1.06;100.00;97211.41;5059996;28;20223;-85
2021/12/12 03:49:33;;;;;;;1.80;1.40;;;;;;;1.08;100.00;97219.22;5056427;28;20219;-84
2021/12/12 03:52:01;;;;;;;2.17;1.50;;;;;;;1.11;100.00;97218.91;5054203;28;20207;-84
2021/12/12 03:54:28;;;;;;;1.90;1.40;;;;;;;1.14;100.00;97207.97;5066868;28;20305;-84
2021/12/12 03:56:57;;;;;;;1.47;1.37;;;;;;;1.11;100.00;97208.28;5054571;28;20205;-83
2021/12/12 03:59:25;;;;;;;1.37;1.20;;;;;;;1.10;100.00;97207.47;5077430;28;20201;-83
2021/12/12 04:01:54;;;;;;;1.30;1.20;;;;;;;1.06;100.00;97207.91;5060119;28;20214;-84
2021/12/12 04:04:24;;;;;;;1.63;1.23;;;;;;;1.03;100.00;97210.84;5063112;28;20200;-83
2021/12/12 04:06:53;;;;;;;1.10;1.00;;;;;;;1.00;100.00;97212.00;5054858;28;20234;-84
2021/12/12 04:09:20;;;;;;;1.30;1.00;;;;;;;0.99;100.00;97212.16;5059394;28;20207;-84
2021/12/12 04:11:51;;;;;;;1.10;1.00;;;;;;;0.90;100.00;97197.09;5057687;28;20201;-84
2021/12/12 04:14:21;;;;;;;2.33;1.20;;;;;;;0.92;100.00;97205.75;5078055;28;20222;-83
2021/12/12 04:16:52;;;;;;;1.37;1.27;;;;;;;0.89;100.00;97211.38;5055447;28;20205;-83
2021/12/12 04:19:19;;;;;;;1.50;1.40;;;;;;;0.93;100.00;97218.91;5055839;28;20229;-83
2021/12/12 04:21:47;;;;;;;1.30;1.20;;;;;;;0.94;100.00;97204.59;5060081;28;20200;-84
2021/12/12 04:24:20;;;;;;;1.60;1.33;;;;;;;0.97;100.00;97208.78;5057184;28;20332;-84
2021/12/12 04:26:47;;;;;;;1.77;1.33;;;;;;;0.91;100.00;97204.09;5070839;28;20230;-84
2021/12/12 04:29:18;;;;;;;1.50;1.40;;;;;;;0.98;100.00;97206.00;5066084;28;20203;-84
2021/12/12 04:31:50;;;;;;;1.40;1.27;;;;;;;0.93;100.00;97202.13;5050821;28;20202;-84
2021/12/12 04:34:18;;;;;;;1.20;1.10;;;;;;;0.89;100.00;97203.38;5055766;28;20325;-83
2021/12/12 04:36:47;;;;;;;1.83;1.50;;;;;;;0.90;100.00;97216.53;5065070;28;20206;-83
2021/12/12 04:39:18;;;;;;;1.30;1.20;;;;;;;0.86;100.00;97216.97;5076336;28;20213;-83
2021/12/12 04:41:47;;;;;;;2.53;1.50;;;;;;;0.80;100.00;97213.09;5076230;28;20230;-83
2021/12/12 04:44:19;;;;;;;1.43;1.33;;;;;;;0.86;100.00;97220.47;5068306;28;20226;-84
2021/12/12 04:49:56;;;;;;;2.10;1.50;;;;;;;0.77;100.00;97216.03;5069860;28;20199;-85
2021/12/12 04:52:29;;;;;;;2.47;1.27;;;;;;;0.74;100.00;97209.22;5065337;28;20198;-84
2021/12/12 04:55:02;;;;;;;1.77;1.50;;;;;;;0.63;100.00;97197.94;5060234;28;20306;-84
2021/12/12 04:57:35;;;;;;;1.80;1.60;;;;;;;0.61;100.00;97205.22;5055963;28;20222;-84
2021/12/12 05:00:08;;;;;;;1.37;1.27;;;;;;;0.62;100.00;97204.25;5055896;28;20307;-84
2021/12/12 05:02:45;;;;;;;1.67;1.37;;;;;;;0.62;100.00;97210.38;5052856;28;20208;-84
2021/12/12 05:05:16;;;;;;;1.40;1.20;;;;;;;0.60;100.00;97204.38;5055164;28;20256;-84
2021/12/12 05:07:48;;;;;;;1.40;1.30;;;;;;;0.56;100.00;97221.63;5056566;28;20209;-83
2021/12/12 05:10:22;;;;;;;1.50;1.27;;;;;;;0.52;100.00;97227.34;5053433;28;20209;-84
2021/12/12 05:12:55;;;;;;;1.33;1.13;;;;;;;0.47;100.00;97227.81;5057584;28;20215;-83
2021/12/12 05:15:29;;;;;;;1.17;1.07;;;;;;;0.48;100.00;97226.84;5059896;28;20223;-81
2021/12/12 05:18:01;;;;;;;1.03;0.97;;;;;;;0.49;100.00;97233.00;5062769;28;20251;-83
2021/12/12 05:20:33;;;;;;;1.43;1.23;;;;;;;0.55;100.00;97230.56;5080292;28;20229;-84
2021/12/12 05:23:06;;;;;;;1.10;1.00;;;;;;;0.53;100.00;97226.38;5052799;28;20201;-83
2021/12/12 05:25:38;;;;;;;1.63;1.10;;;;;;;0.50;100.00;97221.38;5058069;28;20213;-84
2021/12/12 05:28:07;;;;;;;1.20;1.10;;;;;;;0.51;100.00;97231.03;5055512;28;20205;-83
2021/12/12 05:30:36;;;;;;;1.10;1.00;;;;;;;0.45;100.00;97223.63;5062171;28;20204;-84
2021/12/12 05:33:06;;;;;;;1.33;1.10;;;;;;;0.48;100.00;97231.31;5049758;28;20265;-83
2021/12/12 05:35:39;;;;;;;2.00;1.00;;;;;;;0.38;100.00;97234.00;5053733;28;20248;-83
2021/12/12 05:38:08;;;;;;;1.10;1.00;;;;;;;0.40;100.00;97250.63;5051165;28;20209;-83
2021/12/12 05:40:38;;;;;;;0.93;0.93;;;;;;;0.38;100.00;97248.13;5055517;28;20555;-83
2021/12/12 05:43:07;;;;;;;1.13;1.00;;;;;;;0.39;100.00;97246.31;5062576;28;20197;-83
2021/12/12 05:45:37;;;;;;;1.03;1.00;;;;;;;0.37;100.00;97256.22;5065141;28;20243;-83
2021/12/12 05:48:08;;;;;;;1.13;1.03;;;;;;;0.33;100.00;97257.53;5055422;28;20232;-84
2021/12/12 05:50:35;;;;;;;0.80;0.80;;;;;;;0.29;100.00;97250.81;5062775;28;20195;-83
2021/12/12 05:53:03;;;;;;;1.10;1.00;;;;;;;0.29;100.00;97249.00;5058924;28;20193;-83
2021/12/12 05:55:33;;;;;;;1.37;1.10;;;;;;;0.33;100.00;97261.00;5054578;28;20220;-84
2021/12/12 05:58:05;;;;;;;1.27;1.17;;;;;;;0.32;100.00;97254.03;5060755;28;20225;-83
2021/12/12 06:00:36;;;;;;;1.57;1.00;;;;;;;0.38;100.00;97258.75;5056824;28;20210;-84
2021/12/12 06:03:09;;;;;;;1.40;1.23;;;;;;;0.43;100.00;97260.13;5071714;28;20269;-84
2021/12/12 06:05:36;;;;;;;2.60;1.10;;;;;;;0.44;100.00;97264.44;5061550;28;20319;-84
2021/12/12 06:08:05;;;;;;;1.10;0.90;;;;;;;0.41;100.00;97268.25;5056755;28;20307;-84
2021/12/12 06:10:35;;;;;;;0.70;0.70;;;;;;;0.38;100.00;97269.38;5076582;28;20288;-84
2021/12/12 06:13:03;;;;;;;0.90;0.90;;;;;;;0.37;100.00;97272.16;5054250;28;20206;-84
2021/12/12 06:15:32;;;;;;;1.10;1.00;;;;;;;0.37;100.00;97280.13;5065580;28;20228;-83
2021/12/12 06:18:00;;;;;;;0.80;0.80;;;;;;;0.36;100.00;97275.81;5064130;28;20200;-83
2021/12/12 06:20:30;;;;;;;1.83;1.00;;;;;;;0.39;100.00;97280.84;5065735;28;20209;-83
2021/12/12 06:22:58;;;;;;;1.10;1.00;;;;;;;0.37;100.00;97282.78;5057779;28;20202;-83
2021/12/12 06:25:26;;;;;;;1.30;1.20;;;;;;;0.38;100.00;97290.63;5072147;28;20213;-84
2021/12/12 06:27:55;;;;;;;1.50;1.30;;;;;;;0.41;100.00;97300.13;5062364;28;20310;-83
2021/12/12 06:30:24;;;;;;;1.70;1.27;;;;;;;0.40;100.00;97309.09;5060477;28;20209;-84
2021/12/12 06:32:53;;;;;;;1.50;1.37;;;;;;;0.32;100.00;97306.31;5055967;28;20210;-83
2021/12/12 06:35:21;;;;;;;1.20;1.10;;;;;;;0.24;100.00;97308.84;5071396;28;20213;-84
2021/12/12 06:37:51;;;;;;;1.50;1.20;;;;;;;0.30;100.00;97325.03;5059586;28;20225;-84
2021/12/12 06:40:22;;;;;;;2.13;1.20;;;;;;;0.33;100.00;97322.13;5052491;28;20297;-84
2021/12/12 06:42:51;;;;;;;1.20;1.10;;;;;;;0.29;100.00;97325.19;5081879;28;20190;-84
2021/12/12 06:45:19;;;;;;;1.60;1.40;;;;;;;0.27;100.00;97329.78;5064459;28;20217;-84
2021/12/12 06:47:47;;;;;;;1.40;0.93;;;;;;;0.28;100.00;97331.47;5071995;28;20199;-84
2021/12/12 06:50:14;;;;;;;0.87;0.80;;;;;;;0.21;100.00;97325.91;5061588;28;20201;-83
2021/12/12 06:52:41;;;;;;;1.50;1.10;;;;;;;0.16;100.00;97322.00;5055868;28;20231;-83
2021/12/12 06:55:12;;;;;;;1.10;1.00;;;;;;;0.21;100.00;97325.06;5056336;28;20225;-83
2021/12/12 06:57:40;;;;;;;0.90;0.90;;;;;;;0.30;100.00;97329.53;5056138;28;20269;-84
2021/12/12 07:00:11;;;;;;;0.80;0.80;;;;;;;0.23;100.00;97334.56;5062649;28;20287;-83
2021/12/12 07:02:38;;;;;;;1.10;0.80;;;;;;;0.20;100.00;97328.69;5064738;28;20381;-84
2021/12/12 07:05:08;;;;;;;1.20;1.07;;;;;;;0.25;100.00;97337.09;5082063;28;20228;-83
2021/12/12 07:07:36;;;;;;;1.87;1.30;;;;;;;0.19;100.00;97341.13;5057117;28;20240;-83
2021/12/12 07:10:06;;;;;;;1.30;1.20;;;;;;;0.24;100.00;97357.50;5065638;28;20296;-83
2021/12/12 07:12:35;;;;;;;2.47;1.30;;;;;;;0.19;100.00;97349.09;5065202;28;20288;-83
2021/12/12 07:15:04;;;;;;;1.30;1.20;;;;;;;0.18;100.00;97347.41;5057816;28;20430;-84
2021/12/12 07:17:31;;;;;;;1.30;1.20;;;;;;;0.17;100.00;97355.56;5066391;28;20214;-84
2021/12/12 07:19:59;;;;;;;0.93;0.90;;;;;;;0.13;100.00;97349.66;5054097;28;20197;-84
2021/12/12 07:22:26;;;;;;;1.40;1.27;;;;;;;0.13;100.00;97346.19;5061663;28;20214;-83
2021/12/12 07:24:54;;;;;;;1.83;1.43;;;;;;;0.07;100.00;97355.56;5062318;28;20209;-84
2021/12/12 07:27:21;;;;;;;1.40;1.30;;;;;;;0.02;100.00;97351.63;5052945;28;20235;-84
2021/12/12 07:29:50;;;;;;;2.13;1.83;;;;;;;0.12;100.00;97363.09;5060681;28;20208;-84
2021/12/12 07:32:17;;;;;;;4.23;2.60;;;;;;;0.13;100.00;97360.28;5057215;28;20221;-85
2021/12/12 07:34:44;;;;;;;1.97;1.33;;;;;;;0.13;100.00;97364.75;5060501;28;20298;-83
2021/12/12 07:37:12;;;;;;;4.50;1.50;;;;;;;0.14;100.00;97361.97;5059487;28;20209;-84
2021/12/12 07:39:40;;;;;;;1.67;1.30;;;;;;;0.14;100.00;97361.13;5065258;28;20205;-84
2021/12/12 07:42:09;;;;;;;1.97;1.53;;;;;;;0.14;100.00;97361.97;5060855;28;20228;-85
2021/12/12 07:44:40;;;;;;;1.40;1.13;;;;;;;0.14;100.00;97361.13;5060259;28;20224;-84
2021/12/12 07:47:11;;;;;;;2.17;1.83;;;;;;;0.13;100.00;97362.13;5071870;28;20201;-83
2021/12/12 07:49:41;;;;;;;2.43;1.80;;;;;;;0.09;100.00;97360.69;5064974;28;20219;-83
2021/12/12 07:52:12;;;;;;;4.43;1.67;;;;;;;0.14;100.00;97371.75;5073914;28;20198;-84
2021/12/12 07:54:39;;;;;;;2.47;1.67;;;;;;;0.14;100.00;97366.44;5057138;28;20208;-84
2021/12/12 07:57:08;;;;;;;2.00;1.73;;;;;;;0.15;100.00;97370.78;5056913;28;20232;-84
2021/12/12 07:59:37;;;;;;;2.17;1.77;;;;;;;0.12;100.00;97363.94;5061927;28;20185;-83
2021/12/12 08:02:05;;;;;;;1.90;1.30;;;;;;;0.13;100.00;97362.13;5052764;28;20231;-84
2021/12/12 08:04:35;;;;;;;1.43;1.33;;;;;;;0.08;100.00;97362.56;5052827;28;20217;-83
2021/12/12 08:07:02;;;;;;;1.63;1.30;;;;;;;0.10;100.00;97365.03;5055745;28;20336;-85
2021/12/12 08:09:30;;;;;;;1.43;1.30;;;;;;;0.18;100.00;97367.81;5055838;28;20194;-84
2021/12/12 08:11:58;;;;;;;1.20;1.10;;;;;;;0.18;100.00;97362.50;5048397;28;20218;-85
2021/12/12 08:14:28;;;;;;;2.33;1.53;;;;;;;0.18;100.00;97366.00;5051171;28;20197;-85
2021/12/12 08:16:56;;;;;;;3.60;1.50;;;;;;;0.17;100.00;97367.00;5059831;28;20212;-83
2021/12/12 08:19:26;;;;;;;1.80;1.30;;;;;;;0.17;100.00;97363.53;5052268;28;20433;-84
2021/12/12 08:21:59;;;;;;;1.47;1.30;;;;;;;0.19;100.00;97374.81;5057758;28;20227;-84
2021/12/12 08:24:27;;;;;;;1.50;1.27;;;;;;;0.18;100.00;97371.31;5050372;28;20256;-84
2021/12/12 08:26:55;;;;;;;2.07;1.60;;;;;;;0.25;100.00;97382.25;5051472;28;20193;-84
2021/12/12 08:29:23;;;;;;;1.80;1.30;;;;;;;0.24;100.00;97380.56;5053185;28;20211;-84
2021/12/12 08:31:50;;;;;;;3.03;1.70;;;;;;;0.24;100.00;97380.56;5059160;28;20201;-84
2021/12/12 08:34:18;;;;;;;2.27;1.60;;;;;;;0.27;100.00;97380.25;5051234;28;20207;-84
2021/12/12 08:36:48;;;;;;;1.93;1.50;;;;;;;0.21;100.00;97372.88;5053138;28;20228;-83
2021/12/12 08:39:17;;;;;;;1.20;1.10;;;;;;;0.30;100.00;97378.19;5051987;28;20237;-84
2021/12/12 08:41:47;;;;;;;1.70;1.57;;;;;;;0.37;100.00;97389.91;5058261;28;20201;-85
2021/12/12 08:44:15;;;;;;;2.63;1.63;;;;;;;0.35;100.00;97391.03;5064622;28;20229;-84
2021/12/12 08:46:45;;;;;;;2.97;1.73;;;;;;;0.39;100.00;97387.13;5053289;28;20529;-84
2021/12/12 08:49:14;;;;;;;1.70;1.40;;;;;;;0.39;100.00;97397.75;5064868;28;20288;-84
2021/12/12 08:51:46;;;;;;;1.87;1.20;;;;;;;0.37;100.00;97397.88;5056974;28;20205;-84
2021/12/12 08:54:23;;;;;;;3.00;1.70;;;;;;;0.42;100.00;97400.13;5058705;28;20212;-83
2021/12/12 08:56:55;;;;;;;1.87;1.40;;;;;;;0.44;100.00;97408.78;5054129;28;20225;-83
2021/12/12 08:59:26;;;;;;;1.70;1.40;;;;;;;0.48;100.00;97399.56;5056025;28;20243;-85
2021/12/12 09:01:55;;;;;;;1.40;1.20;;;;;;;0.59;100.00;97410.03;5058314;28;20209;-84
2021/12/12 09:04:23;;;;;;;1.57;1.30;;;;;;;0.67;100.00;97412.81;5058356;28;20209;-84
2021/12/12 09:06:57;;;;;;;1.30;1.10;;;;;;;0.71;100.00;97413.34;5066275;28;20241;-83
2021/12/12 09:09:31;;;;;;;1.13;0.97;;;;;;;0.70;100.00;97407.19;5069425;28;20215;-84
2021/12/12 09:12:02;;;;;;;1.10;0.97;;;;;;;0.75;100.00;97418.25;5055312;28;20206;-83
2021/12/12 09:14:34;;;;;;;1.43;1.00;;;;;;;0.79;100.00;97420.59;5056503;28;20228;-84
2021/12/12 09:17:07;;;;;;;1.33;1.23;;;;;;;0.77;100.00;97412.78;5061339;28;20312;-85
2021/12/12 09:19:38;;;;;;;0.80;0.80;;;;;;;0.75;100.00;97412.94;5062803;28;20229;-84
2021/12/12 09:22:11;;;;;;;0.87;0.80;;;;;;;0.73;100.00;97414.06;5051875;28;20286;-83
2021/12/12 09:24:46;;;;;;;1.03;0.93;;;;;;;0.67;100.00;97411.97;5061130;28;20193;-84
2021/12/12 09:27:18;;;;;;;0.87;0.87;;;;;;;0.65;100.00;97414.78;5051338;28;20208;-84
2021/12/12 09:29:52;;;;;;;1.40;1.10;;;;;;;0.67;100.00;97407.50;5076129;28;20194;-85
2021/12/12 09:32:28;;;;;;;2.00;1.57;;;;;;;0.73;100.00;97406.91;5064389;28;20205;-84
2021/12/12 09:35:01;;;;;;;1.43;1.10;;;;;;;0.81;100.00;97402.69;5058289;28;20217;-84
2021/12/12 09:37:34;;;;;;;1.20;0.90;;;;;;;0.90;100.00;97417.78;5064360;28;20221;-84
2021/12/12 09:40:16;;;;;;;0.90;0.83;;;;;;;0.96;100.00;97410.06;5074363;28;20210;-84
2021/12/12 09:42:58;;;;;;;1.33;0.90;;;;;;;0.98;100.00;97396.63;5057664;28;20236;-84
2021/12/12 09:45:46;;;;;;;2.47;1.63;;;;;;;0.98;100.00;97392.16;5063773;28;20218;-86
2021/12/12 09:51:30;;;;;;;2.17;1.20;;;;;;;1.13;100.00;97398.66;5061427;28;20221;-82
2021/12/12 09:54:26;;;;;;;1.10;1.00;;;;;;;1.17;100.00;97399.22;5061379;28;20224;-82
2021/12/12 09:57:01;;;;;;;2.27;1.63;;;;;;;1.23;100.00;97393.31;5048910;28;20309;-82
2021/12/12 09:59:41;;;;;;;2.37;1.60;;;;;;;1.36;100.00;97382.34;5051879;28;20303;-82
2021/12/12 10:02:18;;;;;;;1.87;1.50;;;;;;;1.46;100.00;97380.44;5063815;28;20210;-82
2021/12/12 10:04:56;;;;;;;3.03;1.80;;;;;;;1.59;100.00;97382.78;5057656;28;20206;-81
2021/12/12 10:07:35;;;;;;;4.03;1.70;;;;;;;1.58;100.00;97371.28;5056372;28;20265;-82
2021/12/12 10:10:10;;;;;;;2.27;1.47;;;;;;;1.61;98.82;97384.31;5052907;28;20243;-82
2021/12/12 10:12:45;;;;;;;2.17;1.70;;;;;;;1.73;98.24;97390.25;5056491;28;20224;-82
2021/12/12 10:15:18;;;;;;;2.47;1.60;;;;;;;1.75;97.12;97377.63;5055753;28;20292;-81
2021/12/12 10:17:48;;;;;;;2.10;1.63;;;;;;;1.98;95.81;97388.66;5070289;28;20199;-82
2021/12/12 10:20:21;;;;;;;3.20;2.00;;;;;;;2.10;96.58;97388.31;5068983;28;20201;-82
2021/12/12 10:23:02;;;;;;;1.80;1.47;;;;;;;2.19;94.32;97381.22;5060130;28;20224;-82
2021/12/12 10:25:35;;;;;;;2.40;1.50;;;;;;;2.19;93.32;97378.56;5066161;28;20210;-82
2021/12/12 10:28:18;;;;;;;6.23;1.47;;;;;;;2.27;93.13;97381.28;5050943;28;20306;-81
2021/12/12 10:30:50;;;;;;;2.67;1.40;;;;;;;2.34;92.65;97378.84;5060991;28;20222;-81
2021/12/12 10:33:22;;;;;;;2.80;1.30;;;;;;;2.37;90.42;97371.38;5061932;28;20201;-82
2021/12/12 10:35:53;;;;;;;2.57;1.60;;;;;;;2.48;90.52;97365.78;5065599;28;20224;-81
2021/12/12 10:38:26;;;;;;;2.10;1.40;;;;;;;2.61;90.45;97376.91;5068755;28;20198;-82
2021/12/12 10:40:58;;;;;;;4.03;2.40;;;;;;;2.65;90.01;97361.41;5073052;28;20237;-82
2021/12/12 10:43:36;;;;;;;3.27;1.90;;;;;;;2.72;89.56;97372.31;5067578;28;20212;-84
2021/12/12 10:46:08;;;;;;;2.00;1.20;;;;;;;2.76;89.96;97371.84;5062250;28;20297;-81
2021/12/12 10:48:44;;;;;;;1.90;1.43;;;;;;;2.78;89.96;97367.19;5058991;28;20215;-82
2021/12/12 10:51:16;;;;;;;1.63;1.40;;;;;;;2.78;89.35;97367.19;5054617;28;20204;-81
2021/12/12 10:53:49;;;;;;;1.67;1.50;;;;;;;2.82;90.74;97368.53;5066458;28;20228;-82
2021/12/12 10:56:24;;;;;;;1.60;1.20;;;;;;;2.86;91.50;97372.56;5063124;28;20222;-81
2021/12/12 10:58:58;;;;;;;1.43;1.30;;;;;;;2.89;90.54;97368.75;5066361;28;20204;-82
2021/12/12 11:01:28;;;;;;;1.93;1.50;;;;;;;2.92;90.26;97363.09;5063486;28;20253;-82
2021/12/12 11:04:03;;;;;;;3.33;1.73;;;;;;;2.97;91.05;97372.31;5068910;28;20239;-81
2021/12/12 11:06:33;;;;;;;2.20;1.80;;;;;;;3.01;90.93;97368.31;5052605;28;20247;-82
2021/12/12 11:09:05;;;;;;;3.30;1.60;;;;;;;3.04;91.49;97362.69;5059489;28;20209;-81
2021/12/12 11:11:38;;;;;;;5.40;3.30;;;;;;;3.12;92.86;97372.56;5060275;28;20205;-81
2021/12/12 11:14:15;;;;;;;4.33;3.00;;;;;;;3.17;93.44;97372.06;5058919;28;20224;-81
2021/12/12 11:16:50;;;;;;;6.13;3.53;;;;;;;3.13;94.05;97365.38;5060321;28;20209;-81
2021/12/12 11:19:27;;;;;;;5.90;4.53;;;;;;;3.15;93.59;97364.22;5060749;28;20240;-82
2021/12/12 11:22:01;;;;;;;3.17;2.60;;;;;;;3.17;92.64;97370.22;5070288;28;20272;-81
2021/12/12 11:24:32;;;;;;;2.20;1.80;;;;;;;3.19;92.52;97370.09;5070332;28;20202;-80
2021/12/12 11:27:08;;;;;;;2.80;1.80;;;;;;;3.25;93.01;97370.28;5058542;28;20203;-81
2021/12/12 11:29:41;;;;;;;2.00;1.80;;;;;;;3.35;92.53;97360.31;5067305;28;20208;-81
2021/12/12 11:32:12;;;;;;;1.43;1.33;;;;;;;3.40;92.64;97351.84;5058416;28;20296;-81
2021/12/12 11:34:45;;;;;;;2.83;1.70;;;;;;;3.48;91.84;97345.69;5058298;28;20205;-81
2021/12/12 11:37:25;;;;;;;2.87;1.60;;;;;;;3.47;90.70;97331.50;5056783;28;20232;-81
2021/12/12 11:39:57;;;;;;;3.60;1.63;;;;;;;3.43;89.37;97335.47;5093634;28;20209;-79
2021/12/12 11:42:29;;;;;;;3.23;2.00;;;;;;;3.42;89.66;97323.13;5060392;28;20209;-80
2021/12/12 11:45:07;;;;;;;3.17;2.20;;;;;;;3.46;89.79;97316.47;5066785;28;20220;-81
2021/12/12 11:48:01;;;;;;;7.10;3.80;;;;;;;3.53;89.09;97314.81;5054894;28;20262;-81
2021/12/12 11:50:41;;;;;;;8.87;4.30;;;;;;;3.48;87.02;97319.81;5068489;28;20383;-81
2021/12/12 11:53:14;;;;;;;7.47;4.43;;;;;;;3.53;87.37;97320.16;5060216;28;20216;-80
2021/12/12 11:55:46;;;;;;;5.40;3.60;;;;;;;3.60;89.09;97317.66;5065876;28;20228;-81
2021/12/12 11:58:23;;;;;;;3.27;2.10;;;;;;;3.65;87.88;97318.03;5068061;28;20211;-81
2021/12/12 12:01:00;;;;;;;3.10;1.70;;;;;;;3.69;85.36;97317.53;5058592;28;20204;-81
2021/12/12 12:03:38;;;;;;;2.00;1.50;;;;;;;3.67;85.55;97308.84;5062813;28;20282;-81
2021/12/12 12:06:20;;;;;;;2.17;1.70;;;;;;;3.77;87.15;97320.22;5055775;28;20280;-81
2021/12/12 12:09:02;;;;;;;2.70;1.43;;;;;;;3.84;87.97;97319.53;5060211;28;20198;-81
2021/12/12 12:11:46;;;;;;;1.70;1.50;;;;;;;3.93;87.57;97311.38;5086471;28;20228;-81